Time;durP1;ratioP1;P1;durP2;ratioP2;P2;SDS_P1;SDS_P2;PMS_P1;PMS_P2;Temp;Humidity;BMP_temperature;BMP_pressure;BME280_temperature;BME280_humidity;BME280_pressure;Samples;Min_cycle;Max_cycle;Signal;HPM_P1;HPM_P2
2022/04/18 00:02:13;;;;;;;1.73;1.20;;;20.40;57.80;;;;;;4990146;28;88274;-64
2022/04/18 00:04:38;;;;;;;2.20;1.10;;;20.50;57.80;;;;;;4989480;28;87449;-64
2022/04/18 00:07:04;;;;;;;2.85;1.40;;;20.40;57.90;;;;;;4991998;28;87291;-64
2022/04/18 00:09:33;;;;;;;1.40;1.10;;;20.40;57.90;;;;;;4989728;28;90900;-64
2022/04/18 00:11:59;;;;;;;2.10;0.82;;;20.40;57.80;;;;;;4991135;28;87811;-64
2022/04/18 00:14:24;;;;;;;2.95;1.25;;;20.40;57.80;;;;;;4990163;28;88817;-64
2022/04/18 00:16:50;;;;;;;2.45;1.30;;;20.40;58.00;;;;;;4989232;28;89484;-64
2022/04/18 00:19:16;;;;;;;2.50;1.17;;;20.40;58.10;;;;;;4990709;28;87733;-64
2022/04/18 00:21:42;;;;;;;3.03;1.10;;;20.40;58.00;;;;;;4991522;28;87921;-64
2022/04/18 00:24:10;;;;;;;1.35;1.00;;;20.40;58.00;;;;;;4991292;28;87839;-64
2022/04/18 00:26:39;;;;;;;1.57;1.10;;;20.40;58.10;;;;;;4989636;28;87665;-64
2022/04/18 00:29:05;;;;;;;2.50;1.10;;;20.40;58.10;;;;;;4989975;28;88084;-64
2022/04/18 00:31:31;;;;;;;1.23;1.00;;;20.40;58.10;;;;;;4990978;28;87743;-64
2022/04/18 00:33:57;;;;;;;1.67;1.17;;;20.40;58.00;;;;;;4988889;28;87476;-64
2022/04/18 00:36:22;;;;;;;1.40;1.10;;;20.40;58.00;;;;;;4987792;28;89070;-64
2022/04/18 00:38:48;;;;;;;1.17;0.95;;;20.40;58.10;;;;;;4989184;28;88755;-64
2022/04/18 00:41:13;;;;;;;1.50;1.20;;;20.30;58.00;;;;;;4989376;28;88278;-64
2022/04/18 00:43:40;;;;;;;4.82;1.25;;;20.40;57.90;;;;;;4988007;28;87405;-64
2022/04/18 00:46:07;;;;;;;2.17;1.30;;;20.30;58.10;;;;;;4990990;28;87611;-64
2022/04/18 00:48:32;;;;;;;1.70;1.25;;;20.30;57.90;;;;;;4990247;28;89038;-64
2022/04/18 00:50:58;;;;;;;1.80;1.20;;;20.30;57.90;;;;;;4988092;28;92518;-64
2022/04/18 00:53:27;;;;;;;2.53;1.35;;;20.40;58.00;;;;;;4990082;28;87308;-64
2022/04/18 00:55:54;;;;;;;2.43;1.37;;;20.30;57.90;;;;;;4990236;28;86854;-64
2022/04/18 00:58:20;;;;;;;3.67;1.30;;;20.30;57.90;;;;;;4989852;28;88240;-64
2022/04/18 01:00:45;;;;;;;2.28;1.00;;;20.30;57.90;;;;;;4989635;28;87838;-64
2022/04/18 01:03:11;;;;;;;1.90;1.10;;;20.30;57.80;;;;;;4988901;28;88167;-64
2022/04/18 01:05:37;;;;;;;1.42;1.10;;;20.30;58.00;;;;;;4989030;28;89594;-64
2022/04/18 01:08:05;;;;;;;1.80;1.25;;;20.30;57.80;;;;;;4990661;28;87855;-64
2022/04/18 01:10:31;;;;;;;2.40;0.93;;;20.30;58.00;;;;;;4989874;28;87865;-64
2022/04/18 01:12:56;;;;;;;1.35;1.20;;;20.30;58.00;;;;;;4989747;28;87012;-64
2022/04/18 01:15:22;;;;;;;1.55;1.15;;;20.30;58.00;;;;;;4989501;28;87666;-64
2022/04/18 01:17:48;;;;;;;1.75;1.10;;;20.30;57.90;;;;;;4988151;28;87952;-64
2022/04/18 01:20:13;;;;;;;2.53;1.23;;;20.30;58.00;;;;;;4987714;28;87666;-64
2022/04/18 01:22:42;;;;;;;1.50;1.17;;;20.30;58.00;;;;;;4988621;28;87932;-64
2022/04/18 01:30:37;;;;;;;1.90;1.20;;;20.20;57.90;;;;;;4988493;28;88058;-64
2022/04/18 01:33:03;;;;;;;2.03;0.95;;;20.20;58.00;;;;;;4989179;28;87094;-64
2022/04/18 01:35:28;;;;;;;2.00;1.00;;;20.20;58.00;;;;;;4986709;28;90295;-64
2022/04/18 01:37:54;;;;;;;1.92;1.10;;;20.20;58.00;;;;;;4987872;28;86961;-64
2022/04/18 01:40:19;;;;;;;0.90;0.77;;;20.30;58.00;;;;;;4989981;28;87922;-64
2022/04/18 01:42:45;;;;;;;1.30;0.98;;;20.20;57.90;;;;;;4987546;28;88074;-64
2022/04/18 01:45:11;;;;;;;1.85;1.20;;;20.20;58.10;;;;;;4989455;28;86836;-64
2022/04/18 01:47:36;;;;;;;1.27;1.17;;;20.20;58.00;;;;;;4986973;28;91525;-64
2022/04/18 01:50:02;;;;;;;1.27;1.00;;;20.20;58.00;;;;;;4986900;28;91541;-64
2022/04/18 01:52:28;;;;;;;1.13;1.02;;;20.20;58.00;;;;;;4988119;28;88782;-64
2022/04/18 01:54:54;;;;;;;1.58;1.02;;;20.20;58.00;;;;;;4989144;28;87454;-64
2022/04/18 01:57:19;;;;;;;1.75;1.48;;;20.20;57.90;;;;;;4987551;28;91283;-64
2022/04/18 01:59:45;;;;;;;1.38;1.10;;;20.20;58.00;;;;;;4987350;28;91169;-65
2022/04/18 02:02:11;;;;;;;1.33;1.00;;;20.20;58.20;;;;;;4989783;28;87024;-64
2022/04/18 02:04:36;;;;;;;1.30;0.98;;;20.20;58.00;;;;;;4989894;28;87603;-64
2022/04/18 02:07:02;;;;;;;1.20;1.00;;;20.20;58.00;;;;;;4989800;28;88174;-64
2022/04/18 02:09:28;;;;;;;2.20;1.10;;;20.10;58.20;;;;;;4989993;28;87655;-64
2022/04/18 02:11:54;;;;;;;1.70;1.20;;;20.20;58.10;;;;;;4989202;28;87617;-64
2022/04/18 02:14:19;;;;;;;1.10;0.93;;;20.10;58.00;;;;;;4989202;28;87899;-64
2022/04/18 02:16:45;;;;;;;1.20;1.10;;;20.20;58.10;;;;;;4986859;28;91264;-64
2022/04/18 02:19:10;;;;;;;2.88;1.10;;;20.10;58.00;;;;;;4989989;28;87580;-64
2022/04/18 02:21:36;;;;;;;1.15;1.00;;;20.10;58.10;;;;;;4988936;28;87919;-64
2022/04/18 02:24:02;;;;;;;2.28;1.33;;;20.20;58.00;;;;;;4987031;28;90181;-64
2022/04/18 02:26:28;;;;;;;0.98;0.95;;;20.10;58.10;;;;;;4987795;28;90904;-63
2022/04/18 02:28:53;;;;;;;1.42;1.10;;;20.10;58.00;;;;;;4989294;28;88035;-64
2022/04/18 02:31:19;;;;;;;1.38;0.98;;;20.10;58.10;;;;;;4987412;28;87869;-64
2022/04/18 02:33:44;;;;;;;0.93;0.80;;;20.10;58.10;;;;;;4989515;28;86810;-64
2022/04/18 02:36:10;;;;;;;2.28;1.20;;;20.10;58.20;;;;;;4987493;28;89476;-65
2022/04/18 02:38:35;;;;;;;1.63;1.20;;;20.10;58.20;;;;;;4987068;28;91218;-64
2022/04/18 02:41:01;;;;;;;1.30;1.20;;;20.10;58.20;;;;;;4988865;28;88923;-64
2022/04/18 02:43:27;;;;;;;1.20;1.10;;;20.10;58.30;;;;;;4986823;28;89711;-64
2022/04/18 02:45:52;;;;;;;2.60;1.10;;;20.10;58.20;;;;;;4988945;28;87783;-64
2022/04/18 02:48:18;;;;;;;1.55;1.15;;;20.10;58.30;;;;;;4989598;28;88173;-64
2022/04/18 02:50:43;;;;;;;0.93;0.85;;;20.10;58.20;;;;;;4990773;28;88310;-64
2022/04/18 02:53:09;;;;;;;1.95;1.17;;;20.10;58.40;;;;;;4992570;28;87822;-64
2022/04/18 02:55:35;;;;;;;1.45;1.17;;;20.00;58.30;;;;;;4992212;28;88188;-64
2022/04/18 02:58:00;;;;;;;1.13;1.02;;;20.10;58.30;;;;;;4991152;28;90274;-64
2022/04/18 03:00:26;;;;;;;1.25;1.13;;;20.00;58.30;;;;;;4990303;28;87852;-64
2022/04/18 03:02:52;;;;;;;1.25;0.93;;;20.00;58.30;;;;;;4991651;28;87024;-64
2022/04/18 03:05:17;;;;;;;1.92;1.27;;;20.00;58.20;;;;;;4991308;28;88787;-64
2022/04/18 03:07:43;;;;;;;1.85;1.20;;;20.10;58.20;;;;;;4991498;28;88531;-64
2022/04/18 03:10:09;;;;;;;1.05;0.95;;;20.00;58.20;;;;;;4991740;28;88247;-64
2022/04/18 03:12:35;;;;;;;1.50;1.02;;;20.00;58.10;;;;;;4990679;28;87581;-64
2022/04/18 03:15:01;;;;;;;1.50;0.90;;;20.00;58.10;;;;;;4991312;28;87957;-64
2022/04/18 03:17:27;;;;;;;1.55;1.10;;;20.00;58.30;;;;;;4990996;28;89337;-64
2022/04/18 03:19:52;;;;;;;1.75;1.10;;;20.00;58.30;;;;;;4992284;28;87442;-64
2022/04/18 03:22:19;;;;;;;1.52;1.20;;;20.00;58.10;;;;;;4991582;28;87067;-64
2022/04/18 03:24:45;;;;;;;1.42;1.33;;;20.00;58.20;;;;;;4989592;28;90515;-64
2022/04/18 03:27:11;;;;;;;1.67;1.30;;;20.00;58.20;;;;;;4988729;28;90899;-64
2022/04/18 03:29:37;;;;;;;1.02;0.90;;;20.00;58.20;;;;;;4991391;28;88614;-63
2022/04/18 03:32:03;;;;;;;1.20;1.10;;;20.00;58.10;;;;;;4990078;28;90224;-64
2022/04/18 03:34:29;;;;;;;1.75;1.10;;;20.00;58.20;;;;;;4991358;28;88808;-64
2022/04/18 03:39:51;;;;;;;1.45;1.10;;;20.00;58.20;;;;;;4991523;28;87382;-65
2022/04/18 03:42:19;;;;;;;1.48;1.15;;;20.00;58.10;;;;;;4990344;28;89937;-64
2022/04/18 03:44:46;;;;;;;1.35;1.10;;;19.90;58.00;;;;;;4992076;28;87595;-64
2022/04/18 03:47:15;;;;;;;1.27;0.93;;;20.00;58.10;;;;;;4991521;28;88112;-64
2022/04/18 03:49:42;;;;;;;1.50;1.10;;;20.00;58.20;;;;;;4991108;28;87959;-64
2022/04/18 03:52:08;;;;;;;1.60;0.93;;;20.00;58.10;;;;;;4991638;28;87887;-64
2022/04/18 03:54:35;;;;;;;1.10;0.77;;;19.90;58.00;;;;;;4991563;28;90206;-64
2022/04/18 03:57:02;;;;;;;1.75;1.08;;;20.00;58.10;;;;;;4991297;28;88909;-64
2022/04/18 03:59:28;;;;;;;1.20;0.98;;;19.90;58.10;;;;;;4991583;28;87510;-64
2022/04/18 04:01:54;;;;;;;0.85;0.82;;;19.90;58.00;;;;;;4989495;28;89522;-64
2022/04/18 04:04:19;;;;;;;1.98;1.00;;;19.90;58.00;;;;;;4991528;28;88171;-64
2022/04/18 04:06:45;;;;;;;1.27;1.17;;;19.90;58.00;;;;;;4991214;28;87932;-64
2022/04/18 04:09:11;;;;;;;1.52;0.98;;;19.90;58.00;;;;;;4991517;28;87648;-65
2022/04/18 04:11:37;;;;;;;1.83;1.00;;;19.90;58.00;;;;;;4991589;28;86757;-64
2022/04/18 04:14:02;;;;;;;1.50;1.17;;;19.90;57.90;;;;;;4989134;28;90948;-64
2022/04/18 04:16:28;;;;;;;1.23;1.00;;;19.90;58.00;;;;;;4988601;28;90247;-64
2022/04/18 04:18:54;;;;;;;1.15;0.95;;;19.90;58.10;;;;;;4990430;28;88477;-64
2022/04/18 04:21:19;;;;;;;2.03;1.30;;;19.90;58.00;;;;;;4989464;28;90206;-64
2022/04/18 04:23:45;;;;;;;1.70;1.05;;;19.90;58.00;;;;;;4988665;28;90464;-64
2022/04/18 04:26:11;;;;;;;1.75;1.17;;;19.90;58.20;;;;;;4988733;28;90968;-64
2022/04/18 04:28:37;;;;;;;1.55;1.00;;;19.90;58.00;;;;;;4990946;28;87927;-64
2022/04/18 04:31:03;;;;;;;1.98;1.00;;;19.90;58.10;;;;;;4989779;28;88006;-64
2022/04/18 04:33:30;;;;;;;1.30;1.02;;;19.90;58.00;;;;;;4989776;28;88153;-64
2022/04/18 04:35:58;;;;;;;0.80;0.80;;;19.80;57.90;;;;;;4989854;28;88249;-64
2022/04/18 04:38:24;;;;;;;1.63;1.25;;;19.80;58.00;;;;;;4989948;28;87763;-65
2022/04/18 04:40:50;;;;;;;1.40;0.90;;;19.90;58.00;;;;;;4988539;28;89589;-64
2022/04/18 04:43:15;;;;;;;1.05;0.90;;;19.90;58.00;;;;;;4989042;28;89073;-64
2022/04/18 04:45:41;;;;;;;1.42;1.10;;;19.90;58.10;;;;;;4990004;28;89749;-65
2022/04/18 04:48:07;;;;;;;2.60;0.95;;;19.80;58.00;;;;;;4989175;28;87712;-65
2022/04/18 04:50:33;;;;;;;1.73;1.00;;;19.90;57.80;;;;;;4990436;28;87393;-65
2022/04/18 04:53:00;;;;;;;2.05;1.00;;;19.90;58.30;;;;;;4989407;28;91347;-64
2022/04/18 04:55:27;;;;;;;1.25;1.10;;;19.90;58.40;;;;;;4987754;28;87896;-65
2022/04/18 04:57:53;;;;;;;2.08;0.98;;;19.90;58.00;;;;;;4990644;28;87884;-65
2022/04/18 05:00:19;;;;;;;2.55;1.20;;;19.90;58.30;;;;;;4991464;28;86189;-64
2022/04/18 05:02:45;;;;;;;4.32;1.40;;;19.90;58.10;;;;;;4988427;28;92197;-65
2022/04/18 05:05:11;;;;;;;3.67;1.23;;;19.90;58.40;;;;;;4990895;28;88472;-64
2022/04/18 05:07:37;;;;;;;2.20;1.25;;;19.90;58.60;;;;;;4989033;28;88628;-64
2022/04/18 05:10:03;;;;;;;1.65;1.38;;;19.90;58.70;;;;;;4989671;28;87650;-64
2022/04/18 05:12:31;;;;;;;2.63;1.30;;;19.90;59.00;;;;;;4988602;28;87594;-64
2022/04/18 05:15:04;;;;;;;2.55;1.25;;;19.90;58.90;;;;;;4986823;28;91339;-64
2022/04/18 05:17:31;;;;;;;2.85;1.67;;;19.90;58.30;;;;;;4990073;28;88206;-64
2022/04/18 05:19:57;;;;;;;2.22;1.50;;;19.90;59.10;;;;;;4990035;28;86833;-64
2022/04/18 05:22:22;;;;;;;3.00;1.92;;;19.90;59.00;;;;;;4990031;28;87619;-65
2022/04/18 05:24:49;;;;;;;1.60;1.20;;;20.00;59.20;;;;;;4990835;28;88035;-63
2022/04/18 05:27:15;;;;;;;3.33;1.67;;;20.00;55.90;;;;;;4988359;28;88011;-64
2022/04/18 05:29:44;;;;;;;2.20;1.60;;;19.90;56.60;;;;;;4989913;28;88018;-63
2022/04/18 05:32:11;;;;;;;2.63;1.65;;;19.90;56.30;;;;;;4989867;28;88653;-64
2022/04/18 05:34:37;;;;;;;4.03;1.50;;;19.90;56.20;;;;;;4990026;28;87582;-64
2022/04/18 05:37:04;;;;;;;5.65;1.98;;;20.00;56.00;;;;;;4988615;28;86988;-63
2022/04/18 05:39:30;;;;;;;2.75;1.42;;;20.00;56.10;;;;;;4990188;28;87569;-63
2022/04/18 05:41:58;;;;;;;3.03;1.55;;;19.90;56.20;;;;;;4987719;28;90907;-63
2022/04/18 05:44:25;;;;;;;6.60;1.45;;;20.00;56.30;;;;;;4988183;28;89757;-63
2022/04/18 05:46:51;;;;;;;4.65;1.60;;;20.00;55.80;;;;;;4987806;28;87047;-63
2022/04/18 05:49:17;;;;;;;2.22;1.45;;;20.00;55.50;;;;;;4989046;28;86932;-63
2022/04/18 05:51:43;;;;;;;5.40;1.80;;;20.00;55.50;;;;;;4988609;28;87336;-63
2022/04/18 05:54:09;;;;;;;8.05;1.75;;;20.00;55.40;;;;;;4989143;28;87859;-64
2022/04/18 05:56:34;;;;;;;3.63;1.40;;;20.00;55.30;;;;;;4988774;28;88920;-64
2022/04/18 05:59:00;;;;;;;4.18;1.80;;;20.00;55.10;;;;;;4987290;28;90393;-63
2022/04/18 06:01:28;;;;;;;3.63;1.48;;;20.00;55.10;;;;;;4989640;28;87549;-63
2022/04/18 06:03:55;;;;;;;3.35;1.98;;;20.00;55.20;;;;;;4989996;28;87474;-64
2022/04/18 06:06:22;;;;;;;3.25;1.63;;;20.00;54.80;;;;;;4988249;28;87891;-63
2022/04/18 06:08:47;;;;;;;21.10;3.13;;;20.00;54.80;;;;;;4989192;28;87686;-63
2022/04/18 06:11:13;;;;;;;17.45;3.38;;;20.00;54.80;;;;;;4989355;28;87927;-64
2022/04/18 06:13:39;;;;;;;21.77;4.05;;;20.00;54.90;;;;;;4988710;28;87700;-63
2022/04/18 06:16:06;;;;;;;19.35;3.38;;;20.00;55.10;;;;;;4989262;28;87468;-63
2022/04/18 06:18:32;;;;;;;22.27;4.88;;;20.00;55.20;;;;;;4987690;28;90287;-63
2022/04/18 06:20:58;;;;;;;22.00;4.53;;;20.10;55.20;;;;;;4986329;28;92005;-63
2022/04/18 06:23:23;;;;;;;16.42;3.58;;;20.10;55.30;;;;;;4988604;28;88422;-64
2022/04/18 06:25:49;;;;;;;16.33;2.78;;;20.10;56.00;;;;;;4994993;28;87208;-65
2022/04/18 06:28:15;;;;;;;17.88;3.08;;;20.10;57.00;;;;;;4991911;28;90550;-65
2022/04/18 06:30:41;;;;;;;12.45;3.15;;;20.20;57.10;;;;;;4990634;28;90730;-65
2022/04/18 06:33:12;;;;;;;11.32;3.58;;;20.10;56.80;;;;;;4990467;28;90740;-66
2022/04/18 06:35:38;;;;;;;9.23;2.70;;;20.10;56.50;;;;;;4989133;28;87065;-65
2022/04/18 06:38:05;;;;;;;11.27;3.53;;;20.20;56.40;;;;;;4991875;28;86879;-66
2022/04/18 06:40:30;;;;;;;13.10;3.60;;;20.20;56.20;;;;;;4991188;28;88189;-66
2022/04/18 06:42:56;;;;;;;10.82;3.97;;;20.20;56.70;;;;;;4990245;28;87631;-66
2022/04/18 06:45:22;;;;;;;18.48;3.72;;;20.20;56.10;;;;;;5007071;28;88433;-66
2022/04/18 06:47:48;;;;;;;18.98;2.80;;;20.20;56.00;;;;;;4992024;28;87081;-65
2022/04/18 06:50:13;;;;;;;7.93;2.65;;;20.20;56.40;;;;;;4982761;28;91158;-66
2022/04/18 06:52:41;;;;;;;8.02;2.50;;;20.20;56.20;;;;;;4990875;28;87804;-66
2022/04/18 06:55:08;;;;;;;12.50;3.05;;;20.20;56.60;;;;;;4989607;28;87826;-65
2022/04/18 06:57:34;;;;;;;12.32;3.10;;;20.20;57.00;;;;;;4972534;28;88868;-66
2022/04/18 07:00:00;;;;;;;17.10;3.28;;;20.20;57.30;;;;;;4990486;28;89583;-65
2022/04/18 07:02:26;;;;;;;14.45;3.70;;;20.20;57.40;;;;;;4989915;28;90405;-65
2022/04/18 07:04:53;;;;;;;11.15;2.63;;;20.20;57.60;;;;;;4992072;28;88390;-66
2022/04/18 07:07:18;;;;;;;16.02;2.95;;;20.20;57.70;;;;;;4991495;28;87043;-66
2022/04/18 07:09:44;;;;;;;19.20;2.90;;;20.20;58.00;;;;;;4988759;28;94107;-66
2022/04/18 07:12:10;;;;;;;9.35;2.45;;;20.20;58.00;;;;;;4991347;28;88187;-66
2022/04/18 07:14:36;;;;;;;10.77;2.65;;;20.20;58.40;;;;;;4991527;28;87278;-65
2022/04/18 07:17:02;;;;;;;13.32;2.80;;;20.20;58.40;;;;;;4990283;28;87726;-66
2022/04/18 07:19:28;;;;;;;15.38;3.30;;;20.20;58.30;;;;;;4987226;28;90165;-66
2022/04/18 07:21:55;;;;;;;12.38;3.40;;;20.30;58.00;;;;;;4991187;28;88252;-65
2022/04/18 07:24:22;;;;;;;13.80;3.38;;;20.30;58.30;;;;;;4992029;28;87713;-66
2022/04/18 07:26:48;;;;;;;7.28;2.95;;;20.30;58.40;;;;;;4992320;28;87434;-66
2022/04/18 07:29:14;;;;;;;9.13;2.53;;;20.30;58.40;;;;;;4991393;28;88114;-66
2022/04/18 07:31:40;;;;;;;10.18;2.80;;;20.30;59.20;;;;;;4987189;28;90444;-66
2022/04/18 07:34:05;;;;;;;8.18;2.67;;;20.30;58.90;;;;;;4990291;28;89054;-66
2022/04/18 07:36:37;;;;;;;16.50;3.05;;;20.30;59.50;;;;;;4987750;28;87821;-65
2022/04/18 07:39:03;;;;;;;12.30;3.03;;;20.30;59.60;;;;;;4992753;28;90008;-66
2022/04/18 07:41:30;;;;;;;13.25;3.50;;;20.30;59.80;;;;;;4989848;28;90763;-65
2022/04/18 07:43:57;;;;;;;9.43;2.55;;;20.30;60.20;;;;;;4989479;28;87694;-66
2022/04/18 07:46:23;;;;;;;15.02;3.65;;;20.30;60.20;;;;;;4990392;28;88143;-66
2022/04/18 07:48:51;;;;;;;11.73;3.40;;;20.30;60.40;;;;;;4988613;28;90030;-66
2022/04/18 07:51:36;;;;;;;8.27;2.90;;;20.30;60.30;;;;;;4990957;28;87810;-65
2022/04/18 07:54:17;;;;;;;20.77;3.45;;;20.30;60.60;;;;;;4991318;28;87528;-65
2022/04/18 07:56:43;;;;;;;9.88;3.22;;;20.30;60.90;;;;;;4989658;28;90038;-67
2022/04/18 07:59:10;;;;;;;18.45;3.78;;;20.30;61.40;;;;;;4990988;28;89050;-66
2022/04/18 08:01:35;;;;;;;11.52;3.08;;;20.30;61.40;;;;;;4991205;28;89328;-66
2022/04/18 08:04:02;;;;;;;14.20;3.42;;;20.30;61.80;;;;;;4988756;28;87628;-66
2022/04/18 08:06:33;;;;;;;12.13;3.35;;;20.30;62.10;;;;;;4989234;28;88467;-65
2022/04/18 08:08:59;;;;;;;9.65;3.40;;;20.30;62.10;;;;;;4988755;28;91494;-65
2022/04/18 08:11:25;;;;;;;10.60;3.40;;;20.30;62.30;;;;;;4989405;28;87431;-66
2022/04/18 08:13:52;;;;;;;10.18;3.10;;;20.30;61.70;;;;;;4989855;28;87841;-65
2022/04/18 08:16:18;;;;;;;12.38;3.80;;;20.30;61.30;;;;;;4989363;28;88707;-65
2022/04/18 08:18:44;;;;;;;9.75;3.78;;;20.30;61.60;;;;;;4994319;28;88776;-66
2022/04/18 08:21:20;;;;;;;14.82;3.83;;;20.40;61.90;;;;;;4991893;28;91146;-65
2022/04/18 08:23:47;;;;;;;9.68;3.47;;;20.40;62.40;;;;;;4990510;28;89122;-64
2022/04/18 08:26:13;;;;;;;9.68;3.28;;;20.40;62.60;;;;;;4991965;28;87222;-64
2022/04/18 08:28:40;;;;;;;13.35;3.55;;;20.40;62.80;;;;;;4993841;28;88636;-64
2022/04/18 08:31:06;;;;;;;9.25;3.72;;;20.40;62.30;;;;;;4990768;28;89912;-64
2022/04/18 08:33:31;;;;;;;14.20;3.95;;;20.40;62.30;;;;;;4987820;28;88041;-65
2022/04/18 08:35:59;;;;;;;9.18;3.70;;;20.40;62.00;;;;;;4990168;28;87673;-65
2022/04/18 08:38:28;;;;;;;12.50;2.92;;;20.40;61.00;;;;;;4990407;28;87675;-64
2022/04/18 08:41:00;;;;;;;9.63;2.88;;;20.30;59.00;;;;;;4990407;28;87741;-65
2022/04/18 08:43:26;;;;;;;15.13;3.38;;;20.30;57.00;;;;;;4990250;28;88060;-64
2022/04/18 08:45:51;;;;;;;6.85;2.88;;;20.40;57.20;;;;;;4988683;28;90720;-64
2022/04/18 08:53:50;;;;;;;7.70;3.00;;;20.30;55.70;;;;;;4990645;28;86950;-65
2022/04/18 08:56:16;;;;;;;10.48;2.65;;;20.30;55.70;;;;;;4987790;28;88212;-64
2022/04/18 08:58:41;;;;;;;10.13;2.97;;;20.30;55.70;;;;;;4988998;28;88394;-65
2022/04/18 09:01:07;;;;;;;7.35;2.53;;;20.40;56.10;;;;;;4988267;28;90479;-65
2022/04/18 09:03:34;;;;;;;10.25;2.88;;;20.30;55.60;;;;;;4989480;28;88188;-65
2022/04/18 09:06:08;;;;;;;6.85;2.80;;;20.30;55.30;;;;;;4989286;28;87268;-66
2022/04/18 09:08:41;;;;;;;9.95;3.42;;;20.30;55.30;;;;;;4989147;28;88739;-65
2022/04/18 09:11:07;;;;;;;20.02;3.35;;;20.40;55.40;;;;;;4987094;28;87869;-65
2022/04/18 09:13:33;;;;;;;13.10;3.47;;;20.30;55.90;;;;;;4987705;28;88644;-65
2022/04/18 09:15:59;;;;;;;30.20;4.25;;;20.30;56.00;;;;;;4988900;28;88283;-65
2022/04/18 09:18:26;;;;;;;11.38;3.17;;;20.40;56.50;;;;;;4989720;28;88474;-65
2022/04/18 09:20:58;;;;;;;8.95;3.35;;;20.40;56.70;;;;;;4986208;28;89846;-65
2022/04/18 09:23:30;;;;;;;16.23;3.50;;;20.40;56.90;;;;;;4983145;28;87686;-65
2022/04/18 09:26:00;;;;;;;14.73;3.67;;;20.40;57.60;;;;;;4988871;28;87271;-64
2022/04/18 09:28:34;;;;;;;47.53;8.45;;;20.40;57.00;;;;;;4984362;28;92246;-65
2022/04/18 09:31:09;;;;;;;59.78;9.43;;;20.40;56.30;;;;;;4989413;28;88001;-65
2022/04/18 09:33:42;;;;;;;33.00;7.65;;;20.40;54.70;;;;;;4988584;28;87194;-65
2022/04/18 09:36:15;;;;;;;47.45;7.50;;;20.30;55.20;;;;;;4987393;28;89784;-65
2022/04/18 09:38:52;;;;;;;35.38;7.35;;;20.40;54.00;;;;;;4987958;28;89047;-65
2022/04/18 09:41:28;;;;;;;33.75;6.95;;;20.30;54.10;;;;;;4987113;28;91543;-65
2022/04/18 09:43:55;;;;;;;37.22;7.70;;;20.30;53.80;;;;;;4989099;28;87903;-66
2022/04/18 09:46:22;;;;;;;35.80;7.45;;;20.40;53.70;;;;;;4984810;28;88243;-65
2022/04/18 09:48:49;;;;;;;31.67;6.60;;;20.40;53.60;;;;;;4987761;28;90452;-65
2022/04/18 09:51:25;;;;;;;28.70;6.93;;;20.40;53.10;;;;;;4989272;28;87400;-65
2022/04/18 09:53:57;;;;;;;30.00;6.50;;;20.40;53.80;;;;;;4988392;28;88510;-66
2022/04/18 09:56:24;;;;;;;28.73;6.13;;;20.40;53.70;;;;;;4987851;28;90264;-65
2022/04/18 09:58:55;;;;;;;29.38;6.50;;;20.40;52.90;;;;;;4988939;28;87510;-65
2022/04/18 10:01:23;;;;;;;20.15;5.75;;;20.40;53.20;;;;;;4989065;28;88215;-65
2022/04/18 10:03:52;;;;;;;25.92;6.57;;;20.40;52.60;;;;;;5002114;28;88450;-65
2022/04/18 10:06:19;;;;;;;22.58;6.60;;;20.40;53.00;;;;;;4985728;28;90108;-65
2022/04/18 10:08:45;;;;;;;23.20;6.38;;;20.40;53.30;;;;;;4988825;28;87302;-65
2022/04/18 10:11:12;;;;;;;18.98;5.57;;;20.40;53.60;;;;;;4988934;28;87171;-65
2022/04/18 10:13:38;;;;;;;21.45;6.18;;;20.40;53.80;;;;;;4988165;28;88531;-65
2022/04/18 10:16:06;;;;;;;29.33;6.80;;;20.40;54.20;;;;;;4989094;28;87595;-65
2022/04/18 10:18:43;;;;;;;17.50;5.75;;;20.40;54.20;;;;;;4988607;28;88733;-65
2022/04/18 10:21:13;;;;;;;19.23;5.18;;;20.40;54.40;;;;;;4986671;28;87956;-65
2022/04/18 10:23:53;;;;;;;;;;;20.40;54.30;;;;;;4989456;28;88339;-65
2022/04/18 10:26:43;;;;;;;19.13;5.75;;;20.40;54.80;;;;;;4988792;28;87268;-65
2022/04/18 10:29:20;;;;;;;14.85;5.05;;;20.40;54.80;;;;;;4987190;28;88990;-65
2022/04/18 10:31:46;;;;;;;18.30;4.65;;;20.40;54.10;;;;;;4988035;28;88883;-64
2022/04/18 10:34:13;;;;;;;20.73;5.35;;;20.40;52.10;;;;;;4989100;28;87636;-65
2022/04/18 10:36:46;;;;;;;22.73;5.85;;;20.40;51.50;;;;;;4987465;28;87298;-65
2022/04/18 10:39:12;;;;;;;15.82;5.03;;;20.30;51.80;;;;;;4988232;28;88686;-64
2022/04/18 10:41:40;;;;;;;15.45;4.55;;;20.30;50.60;;;;;;4988466;28;87901;-65
2022/04/18 10:44:11;;;;;;;17.40;4.50;;;20.30;50.90;;;;;;4988449;28;88301;-65
2022/04/18 10:46:56;;;;;;;17.35;4.07;;;20.30;50.30;;;;;;4989478;28;86920;-65
2022/04/18 10:49:31;;;;;;;18.02;4.50;;;20.40;49.70;;;;;;4987084;28;87652;-65
2022/04/18 10:52:05;;;;;;;12.60;4.00;;;20.30;49.60;;;;;;4986223;28;91128;-65
2022/04/18 10:54:31;;;;;;;14.32;4.05;;;20.30;49.80;;;;;;4988015;28;88470;-65
2022/04/18 10:57:01;;;;;;;15.10;4.57;;;20.40;50.90;;;;;;4987816;28;87436;-65
2022/04/18 10:59:30;;;;;;;14.57;4.20;;;20.40;50.50;;;;;;4987639;28;87973;-65
2022/04/18 11:02:01;;;;;;;17.80;4.53;;;20.30;50.50;;;;;;4987033;28;89575;-64
2022/04/18 11:04:33;;;;;;;11.23;3.65;;;20.40;50.60;;;;;;4986179;28;87645;-65
2022/04/18 11:07:10;;;;;;;20.48;5.22;;;20.30;50.40;;;;;;4987345;28;87229;-65
2022/04/18 11:09:44;;;;;;;18.92;4.68;;;20.30;49.90;;;;;;4986996;28;88577;-65
2022/04/18 11:12:12;;;;;;;26.75;5.85;;;20.30;49.60;;;;;;4991059;28;87282;-65
2022/04/18 11:14:37;;;;;;;21.92;5.65;;;20.30;49.40;;;;;;4991753;28;87996;-64
2022/04/18 11:17:09;;;;;;;24.85;5.47;;;20.40;49.50;;;;;;4990937;28;86980;-63
2022/04/18 11:19:39;;;;;;;24.52;5.93;;;20.40;49.40;;;;;;4989784;28;90879;-63
2022/04/18 11:22:08;;;;;;;;;;;20.40;49.70;;;;;;4992136;28;88842;-63
2022/04/18 11:24:37;;;;;;;16.27;4.65;;;20.40;50.10;;;;;;4993013;28;86882;-64
2022/04/18 11:27:09;;;;;;;21.20;4.68;;;20.40;50.20;;;;;;4991913;28;87454;-64
2022/04/18 11:29:38;;;;;;;22.38;5.28;;;20.40;50.30;;;;;;4990445;28;90843;-63
2022/04/18 11:32:06;;;;;;;18.40;5.55;;;20.40;50.40;;;;;;4989294;28;90836;-64
2022/04/18 11:34:33;;;;;;;20.58;5.38;;;20.40;50.60;;;;;;4991023;28;87623;-64
2022/04/18 11:37:01;;;;;;;18.80;5.18;;;20.40;50.70;;;;;;4989914;28;89927;-64
2022/04/18 11:39:53;;;;;;;17.40;5.28;;;20.40;50.70;;;;;;4991066;28;90032;-64
2022/04/18 11:42:21;;;;;;;18.58;4.38;;;20.40;51.00;;;;;;4991509;28;87121;-64
2022/04/18 11:44:51;;;;;;;15.95;4.68;;;20.40;51.10;;;;;;4991246;28;88299;-64
2022/04/18 11:47:23;;;;;;;19.02;4.75;;;20.40;51.20;;;;;;4989374;28;89987;-64
2022/04/18 11:49:55;;;;;;;16.67;4.90;;;20.40;51.50;;;;;;4989572;28;90756;-64
2022/04/18 11:52:23;;;;;;;14.85;4.57;;;20.40;51.50;;;;;;4991120;28;87665;-64
2022/04/18 11:54:55;;;;;;;22.27;4.68;;;20.40;51.60;;;;;;4989280;28;87611;-64
2022/04/18 11:57:21;;;;;;;16.63;5.22;;;20.40;51.60;;;;;;4991820;28;88294;-64
2022/04/18 11:59:49;;;;;;;13.73;4.65;;;20.40;51.60;;;;;;4991563;28;87704;-64
2022/04/18 12:07:46;;;;;;;15.52;5.68;;;20.40;52.10;;;;;;4990145;28;87016;-63
2022/04/18 12:10:24;;;;;;;18.90;4.53;;;20.40;52.10;;;;;;4987705;28;91477;-64
2022/04/18 12:12:50;;;;;;;13.93;4.43;;;20.40;52.30;;;;;;4990377;28;88493;-64
2022/04/18 12:15:19;;;;;;;17.23;5.28;;;20.40;52.30;;;;;;4990415;28;87112;-64
2022/04/18 12:17:46;;;;;;;12.90;4.32;;;20.40;52.40;;;;;;4990645;28;87328;-64
2022/04/18 12:20:23;;;;;;;22.27;5.53;;;20.40;52.10;;;;;;4989936;28;87598;-64
2022/04/18 12:22:52;;;;;;;15.50;4.57;;;20.40;52.60;;;;;;4990510;28;87470;-64
2022/04/18 12:25:24;;;;;;;13.88;4.07;;;20.40;52.60;;;;;;4991383;28;87478;-64
2022/04/18 12:27:50;;;;;;;15.02;4.40;;;20.40;52.80;;;;;;4991512;28;86974;-63
2022/04/18 12:30:17;;;;;;;16.27;4.47;;;20.40;52.80;;;;;;4991225;28;87760;-64
2022/04/18 12:32:47;;;;;;;16.67;4.93;;;20.40;53.00;;;;;;4990354;28;87543;-64
2022/04/18 12:35:13;;;;;;;13.68;4.50;;;20.40;53.10;;;;;;4988235;28;88424;-64
2022/04/18 12:37:45;;;;;;;14.23;3.92;;;20.40;53.00;;;;;;4989129;28;89984;-63
2022/04/18 12:40:13;;;;;;;12.55;3.72;;;20.40;53.20;;;;;;4989695;28;90417;-64
2022/04/18 12:42:38;;;;;;;14.35;4.10;;;20.40;53.30;;;;;;4990610;28;88120;-63
2022/04/18 12:45:05;;;;;;;15.13;4.60;;;20.40;53.20;;;;;;4990732;28;87305;-64
2022/04/18 12:47:32;;;;;;;15.57;4.55;;;20.40;53.30;;;;;;4990706;28;87786;-64
2022/04/18 12:50:08;;;;;;;11.00;3.58;;;20.40;53.50;;;;;;4989403;28;91112;-63
2022/04/18 12:52:43;;;;;;;12.95;4.13;;;20.40;53.50;;;;;;4989244;28;90238;-64
2022/04/18 12:55:12;;;;;;;15.80;4.07;;;20.40;53.50;;;;;;4990735;28;87995;-63
2022/04/18 12:57:37;;;;;;;12.98;3.92;;;20.40;53.60;;;;;;4991082;28;86857;-63
2022/04/18 13:00:14;;;;;;;14.10;3.80;;;20.40;53.40;;;;;;4989778;28;89061;-63
2022/04/18 13:02:54;;;;;;;11.05;3.63;;;20.40;53.40;;;;;;4989454;28;88291;-64
2022/04/18 13:05:28;;;;;;;12.70;4.07;;;20.40;53.40;;;;;;4987326;28;88403;-65